sensor_id;sensor_type;location;lat;lon;timestamp;pressure;altitude;pressure_sealevel;temperature;humidity
15487;BME280;7845;53.698;10.078;2024-03-02T00:02:21;100120.44;;;9.79;81.31
15487;BME280;7845;53.698;10.078;2024-03-02T00:04:47;100122.84;;;9.82;81.73
15487;BME280;7845;53.698;10.078;2024-03-02T00:07:14;100122.47;;;9.75;81.67
15487;BME280;7845;53.698;10.078;2024-03-02T00:09:39;100098.31;;;9.61;81.79
15487;BME280;7845;53.698;10.078;2024-03-02T00:12:05;100082.69;;;9.59;81.86
15487;BME280;7845;53.698;10.078;2024-03-02T00:14:30;100091.16;;;9.63;81.38
15487;BME280;7845;53.698;10.078;2024-03-02T00:16:56;100109.97;;;9.79;81.44
15487;BME280;7845;53.698;10.078;2024-03-02T00:19:21;100117.13;;;9.77;81.48
15487;BME280;7845;53.698;10.078;2024-03-02T00:21:47;100120.44;;;9.79;81.41
15487;BME280;7845;53.698;10.078;2024-03-02T00:24:32;100099.50;;;9.68;81.63
15487;BME280;7845;53.698;10.078;2024-03-02T00:26:58;100085.91;;;9.63;81.22
15487;BME280;7845;53.698;10.078;2024-03-02T00:29:24;100089.47;;;9.62;81.26
15487;BME280;7845;53.698;10.078;2024-03-02T00:31:50;100109.38;;;9.75;80.98
15487;BME280;7845;53.698;10.078;2024-03-02T00:34:17;100105.81;;;9.76;81.75
15487;BME280;7845;53.698;10.078;2024-03-02T00:36:42;100097.25;;;9.74;81.68
15487;BME280;7845;53.698;10.078;2024-03-02T00:39:08;100101.75;;;9.72;82.00
15487;BME280;7845;53.698;10.078;2024-03-02T00:41:33;100089.38;;;9.74;81.68
15487;BME280;7845;53.698;10.078;2024-03-02T00:44:00;100095.66;;;9.72;82.06
15487;BME280;7845;53.698;10.078;2024-03-02T00:46:33;100066.63;;;9.52;81.82
15487;BME280;7845;53.698;10.078;2024-03-02T00:49:02;100046.59;;;9.40;81.96
15487;BME280;7845;53.698;10.078;2024-03-02T00:51:30;100034.47;;;9.28;82.02
15487;BME280;7845;53.698;10.078;2024-03-02T00:54:02;100090.22;;;9.64;82.21
15487;BME280;7845;53.698;10.078;2024-03-02T00:56:30;100090.06;;;9.65;82.07
15487;BME280;7845;53.698;10.078;2024-03-02T00:58:55;100089.38;;;9.63;81.70
15487;BME280;7845;53.698;10.078;2024-03-02T01:01:21;100072.47;;;9.56;81.38
15487;BME280;7845;53.698;10.078;2024-03-02T01:03:48;100090.41;;;9.72;81.73
15487;BME280;7845;53.698;10.078;2024-03-02T01:06:14;100097.34;;;9.73;81.84
15487;BME280;7845;53.698;10.078;2024-03-02T01:08:40;100083.78;;;9.68;81.31
15487;BME280;7845;53.698;10.078;2024-03-02T01:11:05;100094.47;;;9.76;81.57
15487;BME280;7845;53.698;10.078;2024-03-02T01:13:31;100095.56;;;9.73;81.70
15487;BME280;7845;53.698;10.078;2024-03-02T01:15:57;100098.06;;;9.64;82.22
15487;BME280;7845;53.698;10.078;2024-03-02T01:18:23;100100.09;;;9.60;82.57
15487;BME280;7845;53.698;10.078;2024-03-02T01:20:49;100101.63;;;9.63;82.28
15487;BME280;7845;53.698;10.078;2024-03-02T01:23:26;100100.09;;;9.60;82.22
15487;BME280;7845;53.698;10.078;2024-03-02T01:25:51;100071.50;;;9.46;82.58
15487;BME280;7845;53.698;10.078;2024-03-02T01:28:18;100042.94;;;9.21;82.34
15487;BME280;7845;53.698;10.078;2024-03-02T01:30:44;100101.78;;;9.50;83.14
15487;BME280;7845;53.698;10.078;2024-03-02T01:33:10;100090.31;;;9.51;82.54
15487;BME280;7845;53.698;10.078;2024-03-02T01:35:35;100092.34;;;9.58;82.37
15487;BME280;7845;53.698;10.078;2024-03-02T01:38:01;100095.81;;;9.59;82.09
15487;BME280;7845;53.698;10.078;2024-03-02T01:40:27;100081.75;;;9.60;81.90
15487;BME280;7845;53.698;10.078;2024-03-02T01:42:53;100064.25;;;9.49;81.97
15487;BME280;7845;53.698;10.078;2024-03-02T01:45:19;100093.03;;;9.72;81.72
15487;BME280;7845;53.698;10.078;2024-03-02T01:47:45;100053.38;;;9.54;81.41
15487;BME280;7845;53.698;10.078;2024-03-02T01:50:13;100073.06;;;9.60;81.67
15487;BME280;7845;53.698;10.078;2024-03-02T01:52:39;100081.75;;;9.71;81.67
15487;BME280;7845;53.698;10.078;2024-03-02T01:55:05;100057.81;;;9.53;81.58
15487;BME280;7845;53.698;10.078;2024-03-02T01:57:31;100075.69;;;9.71;81.58
15487;BME280;7845;53.698;10.078;2024-03-02T01:59:56;100078.06;;;9.74;81.57
15487;BME280;7845;53.698;10.078;2024-03-02T02:02:22;100080.78;;;9.72;81.62
15487;BME280;7845;53.698;10.078;2024-03-02T02:04:47;100074.69;;;9.72;81.67
15487;BME280;7845;53.698;10.078;2024-03-02T02:07:13;100082.44;;;9.73;81.25
15487;BME280;7845;53.698;10.078;2024-03-02T02:09:42;100047.78;;;9.58;81.35
15487;BME280;7845;53.698;10.078;2024-03-02T02:12:09;100074.59;;;9.73;81.50
15487;BME280;7845;53.698;10.078;2024-03-02T02:14:35;100073.75;;;9.73;81.41
15487;BME280;7845;53.698;10.078;2024-03-02T02:17:00;100041.13;;;9.54;81.67
15487;BME280;7845;53.698;10.078;2024-03-02T02:19:25;100074.69;;;9.72;81.38
15487;BME280;7845;53.698;10.078;2024-03-02T02:21:50;100046.38;;;9.54;81.68
15487;BME280;7845;53.698;10.078;2024-03-02T02:24:16;100068.50;;;9.73;81.35
15487;BME280;7845;53.698;10.078;2024-03-02T02:26:41;100073.50;;;9.76;81.48
15487;BME280;7845;53.698;10.078;2024-03-02T02:29:07;100034.00;;;9.56;81.33
15487;BME280;7845;53.698;10.078;2024-03-02T02:31:42;100061.47;;;9.73;81.49
15487;BME280;7845;53.698;10.078;2024-03-02T02:34:07;100062.56;;;9.71;81.46
15487;BME280;7845;53.698;10.078;2024-03-02T02:36:33;100073.06;;;9.71;81.65
15487;BME280;7845;53.698;10.078;2024-03-02T02:39:02;100063.28;;;9.73;81.38
15487;BME280;7845;53.698;10.078;2024-03-02T02:41:34;100058.38;;;9.68;81.64
15487;BME280;7845;53.698;10.078;2024-03-02T02:44:00;100040.66;;;9.49;81.54
15487;BME280;7845;53.698;10.078;2024-03-02T02:46:25;100064.47;;;9.57;82.13
15487;BME280;7845;53.698;10.078;2024-03-02T02:48:50;100026.88;;;9.36;82.82
15487;BME280;7845;53.698;10.078;2024-03-02T02:51:18;100054.72;;;9.48;82.92
15487;BME280;7845;53.698;10.078;2024-03-02T02:53:43;100026.63;;;9.28;83.07
15487;BME280;7845;53.698;10.078;2024-03-02T02:56:09;100051.50;;;9.45;83.15
15487;BME280;7845;53.698;10.078;2024-03-02T02:58:35;100022.56;;;9.35;82.78
15487;BME280;7845;53.698;10.078;2024-03-02T03:01:00;100038.53;;;9.43;82.38
15487;BME280;7845;53.698;10.078;2024-03-02T03:03:26;100019.22;;;9.33;82.12
15487;BME280;7845;53.698;10.078;2024-03-02T03:05:51;100039.00;;;9.48;82.33
15487;BME280;7845;53.698;10.078;2024-03-02T03:08:16;100019.13;;;9.35;82.23
15487;BME280;7845;53.698;10.078;2024-03-02T03:10:42;100031.28;;;9.47;82.38
15487;BME280;7845;53.698;10.078;2024-03-02T03:13:08;100044.22;;;9.48;82.56
15487;BME280;7845;53.698;10.078;2024-03-02T03:15:36;100040.19;;;9.44;83.15
15487;BME280;7845;53.698;10.078;2024-03-02T03:18:04;100044.22;;;9.37;83.07
15487;BME280;7845;53.698;10.078;2024-03-02T03:20:30;100018.28;;;9.23;82.89
15487;BME280;7845;53.698;10.078;2024-03-02T03:22:59;100050.56;;;9.46;82.49
15487;BME280;7845;53.698;10.078;2024-03-02T03:25:24;100048.63;;;9.48;82.33
15487;BME280;7845;53.698;10.078;2024-03-02T03:27:50;100028.31;;;9.29;82.90
15487;BME280;7845;53.698;10.078;2024-03-02T03:30:18;100052.56;;;9.42;82.95
15487;BME280;7845;53.698;10.078;2024-03-02T03:32:43;100043.28;;;9.38;82.80
15487;BME280;7845;53.698;10.078;2024-03-02T03:35:09;100026.72;;;9.27;82.47
15487;BME280;7845;53.698;10.078;2024-03-02T03:37:34;100045.66;;;9.41;82.43
15487;BME280;7845;53.698;10.078;2024-03-02T03:40:00;100047.34;;;9.42;82.55
15487;BME280;7845;53.698;10.078;2024-03-02T03:42:26;100044.97;;;9.39;82.82
15487;BME280;7845;53.698;10.078;2024-03-02T03:44:51;100031.72;;;9.30;82.45
15487;BME280;7845;53.698;10.078;2024-03-02T03:47:17;100046.00;;;9.37;82.60
15487;BME280;7845;53.698;10.078;2024-03-02T03:49:42;100046.59;;;9.40;82.36
15487;BME280;7845;53.698;10.078;2024-03-02T03:52:07;100021.03;;;9.22;82.41
15487;BME280;7845;53.698;10.078;2024-03-02T03:54:33;100021.88;;;9.22;82.01
15487;BME280;7845;53.698;10.078;2024-03-02T03:56:58;100049.97;;;9.42;82.47
15487;BME280;7845;53.698;10.078;2024-03-02T03:59:23;100039.72;;;9.39;82.32
15487;BME280;7845;53.698;10.078;2024-03-02T04:01:49;100004.97;;;9.15;81.95
15487;BME280;7845;53.698;10.078;2024-03-02T04:04:14;100036.13;;;9.40;82.25
15487;BME280;7845;53.698;10.078;2024-03-02T04:06:40;100041.16;;;9.43;82.08
15487;BME280;7845;53.698;10.078;2024-03-02T04:09:05;100039.59;;;9.41;82.59
15487;BME280;7845;53.698;10.078;2024-03-02T04:11:31;100010.78;;;9.30;82.37
15487;BME280;7845;53.698;10.078;2024-03-02T04:13:56;99979.97;;;9.11;82.04
15487;BME280;7845;53.698;10.078;2024-03-02T04:16:21;100023.41;;;9.36;82.43
15487;BME280;7845;53.698;10.078;2024-03-02T04:18:46;100030.28;;;9.37;82.43
15487;BME280;7845;53.698;10.078;2024-03-02T04:21:12;100016.84;;;9.30;82.75
15487;BME280;7845;53.698;10.078;2024-03-02T04:23:37;99999.72;;;9.15;82.80
15487;BME280;7845;53.698;10.078;2024-03-02T04:26:03;100004.00;;;9.16;82.52
15487;BME280;7845;53.698;10.078;2024-03-02T04:28:29;100020.53;;;9.28;82.63
15487;BME280;7845;53.698;10.078;2024-03-02T04:30:54;100020.44;;;9.29;82.25
15487;BME280;7845;53.698;10.078;2024-03-02T04:33:19;100026.50;;;9.30;82.05
15487;BME280;7845;53.698;10.078;2024-03-02T04:35:45;100028.06;;;9.32;82.35
15487;BME280;7845;53.698;10.078;2024-03-02T04:38:11;100006.84;;;9.13;81.73
15487;BME280;7845;53.698;10.078;2024-03-02T04:40:36;100028.31;;;9.29;82.14
15487;BME280;7845;53.698;10.078;2024-03-02T04:43:02;100006.75;;;9.15;82.30
15487;BME280;7845;53.698;10.078;2024-03-02T04:45:28;100001.97;;;9.08;81.98
15487;BME280;7845;53.698;10.078;2024-03-02T04:47:53;100033.66;;;9.28;81.88
15487;BME280;7845;53.698;10.078;2024-03-02T04:50:19;100036.25;;;9.28;81.98
15487;BME280;7845;53.698;10.078;2024-03-02T04:52:44;100019.00;;;9.14;82.05
15487;BME280;7845;53.698;10.078;2024-03-02T04:55:16;100012.69;;;9.05;82.18
15487;BME280;7845;53.698;10.078;2024-03-02T04:57:41;100038.53;;;9.21;81.83
15487;BME280;7845;53.698;10.078;2024-03-02T05:00:06;100040.06;;;9.24;81.92
15487;BME280;7845;53.698;10.078;2024-03-02T05:02:34;100041.25;;;9.20;81.95
15487;BME280;7845;53.698;10.078;2024-03-02T05:04:59;100043.63;;;9.23;81.76
15487;BME280;7845;53.698;10.078;2024-03-02T05:07:24;100038.53;;;9.21;81.58
15487;BME280;7845;53.698;10.078;2024-03-02T05:09:50;100050.53;;;9.24;81.84
15487;BME280;7845;53.698;10.078;2024-03-02T05:12:15;100049.94;;;9.20;81.28
15487;BME280;7845;53.698;10.078;2024-03-02T05:14:59;100046.50;;;9.20;81.62
15487;BME280;7845;53.698;10.078;2024-03-02T05:17:24;100044.84;;;9.19;81.59
15487;BME280;7845;53.698;10.078;2024-03-02T05:19:52;100028.97;;;9.09;82.04
15487;BME280;7845;53.698;10.078;2024-03-02T05:22:17;100045.66;;;9.19;81.86
15487;BME280;7845;53.698;10.078;2024-03-02T05:24:43;100038.03;;;9.16;81.57
15487;BME280;7845;53.698;10.078;2024-03-02T05:27:08;100010.66;;;8.98;81.65
15487;BME280;7845;53.698;10.078;2024-03-02T05:29:36;100026.13;;;9.12;81.80
15487;BME280;7845;53.698;10.078;2024-03-02T05:32:02;100036.84;;;9.09;82.04
15487;BME280;7845;53.698;10.078;2024-03-02T05:34:27;100035.44;;;9.05;82.13
15487;BME280;7845;53.698;10.078;2024-03-02T05:36:52;100041.84;;;9.12;81.91
15487;BME280;7845;53.698;10.078;2024-03-02T05:39:18;100040.19;;;9.11;81.71
15487;BME280;7845;53.698;10.078;2024-03-02T05:41:43;100011.84;;;8.94;81.67
15487;BME280;7845;53.698;10.078;2024-03-02T05:44:09;100022.09;;;8.97;81.64
15487;BME280;7845;53.698;10.078;2024-03-02T05:46:37;100046.13;;;9.13;81.88
15487;BME280;7845;53.698;10.078;2024-03-02T05:49:06;100025.53;;;8.97;81.68
15487;BME280;7845;53.698;10.078;2024-03-02T05:51:33;100044.44;;;9.12;81.39
15487;BME280;7845;53.698;10.078;2024-03-02T05:53:58;100021.00;;;8.99;80.97
15487;BME280;7845;53.698;10.078;2024-03-02T05:56:23;100052.91;;;9.16;81.41
15487;BME280;7845;53.698;10.078;2024-03-02T05:58:49;100024.09;;;8.93;81.67
15487;BME280;7845;53.698;10.078;2024-03-02T06:01:33;100050.91;;;9.08;81.69
15487;BME280;7845;53.698;10.078;2024-03-02T06:03:58;100045.16;;;9.03;81.69
15487;BME280;7845;53.698;10.078;2024-03-02T06:06:24;100045.91;;;9.05;81.75
15487;BME280;7845;53.698;10.078;2024-03-02T06:08:52;100044.91;;;8.95;81.95
15487;BME280;7845;53.698;10.078;2024-03-02T06:11:20;100049.19;;;8.96;82.12
15487;BME280;7845;53.698;10.078;2024-03-02T06:13:46;100028.09;;;8.75;82.21
15487;BME280;7845;53.698;10.078;2024-03-02T06:16:11;100021.94;;;8.76;82.12
15487;BME280;7845;53.698;10.078;2024-03-02T06:18:37;100049.78;;;8.88;82.13
15487;BME280;7845;53.698;10.078;2024-03-02T06:21:02;100050.28;;;8.93;81.93
15487;BME280;7845;53.698;10.078;2024-03-02T06:23:28;99999.75;;;8.58;81.42
15487;BME280;7845;53.698;10.078;2024-03-02T06:25:53;100038.59;;;8.86;82.33
15487;BME280;7845;53.698;10.078;2024-03-02T06:28:18;100059.22;;;8.91;81.65
15487;BME280;7845;53.698;10.078;2024-03-02T06:30:44;100034.03;;;8.77;81.90
15487;BME280;7845;53.698;10.078;2024-03-02T06:33:10;100028.09;;;8.75;81.86
15487;BME280;7845;53.698;10.078;2024-03-02T06:35:35;100068.03;;;9.01;81.95
15487;BME280;7845;53.698;10.078;2024-03-02T06:38:01;100068.50;;;9.06;81.33
15487;BME280;7845;53.698;10.078;2024-03-02T06:40:27;100066.63;;;9.08;81.61
15487;BME280;7845;53.698;10.078;2024-03-02T06:42:52;100055.88;;;9.00;81.22
15487;BME280;7845;53.698;10.078;2024-03-02T06:45:17;100040.16;;;9.00;81.38
15487;BME280;7845;53.698;10.078;2024-03-02T06:47:43;100063.16;;;9.07;81.40
15487;BME280;7845;53.698;10.078;2024-03-02T06:50:08;100034.56;;;8.93;80.90
15487;BME280;7845;53.698;10.078;2024-03-02T06:52:34;100069.81;;;9.12;81.36
15487;BME280;7845;53.698;10.078;2024-03-02T06:55:00;100028.88;;;8.99;81.09
15487;BME280;7845;53.698;10.078;2024-03-02T06:57:28;100068.88;;;9.24;80.71
15487;BME280;7845;53.698;10.078;2024-03-02T06:59:53;100061.00;;;9.24;81.04
15487;BME280;7845;53.698;10.078;2024-03-02T07:02:23;100067.56;;;9.18;80.94
15487;BME280;7845;53.698;10.078;2024-03-02T07:04:52;100049.31;;;9.05;81.06
15487;BME280;7845;53.698;10.078;2024-03-02T07:07:17;100056.97;;;9.20;81.23
15487;BME280;7845;53.698;10.078;2024-03-02T07:09:43;100063.19;;;9.19;81.20
15487;BME280;7845;53.698;10.078;2024-03-02T07:12:08;100060.19;;;9.23;80.56
15487;BME280;7845;53.698;10.078;2024-03-02T07:14:34;100059.72;;;9.29;81.37
15487;BME280;7845;53.698;10.078;2024-03-02T07:17:18;100057.47;;;9.25;80.41
15487;BME280;7845;53.698;10.078;2024-03-02T07:19:43;100034.13;;;9.22;80.14
15487;BME280;7845;53.698;10.078;2024-03-02T07:22:08;100053.91;;;9.26;80.55
15487;BME280;7845;53.698;10.078;2024-03-02T07:24:43;100027.31;;;9.19;79.97
15487;BME280;7845;53.698;10.078;2024-03-02T07:27:09;100062.13;;;9.43;80.11
15487;BME280;7845;53.698;10.078;2024-03-02T07:29:39;100049.13;;;9.42;79.83
15487;BME280;7845;53.698;10.078;2024-03-02T07:32:13;100079.13;;;9.60;80.01
15487;BME280;7845;53.698;10.078;2024-03-02T07:34:38;100070.19;;;9.51;79.41
15487;BME280;7845;53.698;10.078;2024-03-02T07:37:04;100065.91;;;9.62;79.36
15487;BME280;7845;53.698;10.078;2024-03-02T07:39:30;100079.25;;;9.70;78.73
15487;BME280;7845;53.698;10.078;2024-03-02T07:41:55;100080.06;;;9.81;78.72
15487;BME280;7845;53.698;10.078;2024-03-02T07:44:21;100081.84;;;9.81;78.45
15487;BME280;7845;53.698;10.078;2024-03-02T07:46:48;100088.03;;;9.91;78.44
15487;BME280;7845;53.698;10.078;2024-03-02T07:49:16;100091.84;;;9.98;78.06
15487;BME280;7845;53.698;10.078;2024-03-02T07:51:42;100082.53;;;10.05;77.80
15487;BME280;7845;53.698;10.078;2024-03-02T07:54:08;100117.56;;;10.26;78.11
15487;BME280;7845;53.698;10.078;2024-03-02T07:56:33;100118.75;;;10.33;77.24
15487;BME280;7845;53.698;10.078;2024-03-02T07:58:59;100116.44;;;10.40;77.44
15487;BME280;7845;53.698;10.078;2024-03-02T08:01:33;100109.03;;;10.45;77.30
15487;BME280;7845;53.698;10.078;2024-03-02T08:04:00;100105.69;;;10.43;77.21
15487;BME280;7845;53.698;10.078;2024-03-02T08:06:29;100108.22;;;10.44;76.75
15487;BME280;7845;53.698;10.078;2024-03-02T08:08:59;100115.78;;;10.59;77.39
15487;BME280;7845;53.698;10.078;2024-03-02T08:11:24;100097.22;;;10.50;76.33
15487;BME280;7845;53.698;10.078;2024-03-02T08:13:50;100124.19;;;10.73;75.80
15487;BME280;7845;53.698;10.078;2024-03-02T08:16:16;100127.72;;;10.83;75.97
15487;BME280;7845;53.698;10.078;2024-03-02T08:18:45;100134.72;;;10.94;76.12
15487;BME280;7845;53.698;10.078;2024-03-02T08:21:10;100100.88;;;10.80;75.59
15487;BME280;7845;53.698;10.078;2024-03-02T08:23:36;100097.38;;;10.90;75.29
15487;BME280;7845;53.698;10.078;2024-03-02T08:26:05;100134.47;;;11.18;74.82
15487;BME280;7845;53.698;10.078;2024-03-02T08:28:31;100111.59;;;11.08;74.68
15487;BME280;7845;53.698;10.078;2024-03-02T08:30:56;100146.00;;;11.26;73.73
15487;BME280;7845;53.698;10.078;2024-03-02T08:33:21;100148.44;;;11.39;74.39
15487;BME280;7845;53.698;10.078;2024-03-02T08:35:47;100125.69;;;11.28;74.11
15487;BME280;7845;53.698;10.078;2024-03-02T08:38:12;100139.06;;;11.46;74.03
15487;BME280;7845;53.698;10.078;2024-03-02T08:40:38;100145.47;;;11.53;73.81
15487;BME280;7845;53.698;10.078;2024-03-02T08:43:03;100148.09;;;11.53;73.69
15487;BME280;7845;53.698;10.078;2024-03-02T08:45:29;100149.63;;;11.55;73.63
15487;BME280;7845;53.698;10.078;2024-03-02T08:47:54;100153.22;;;11.54;72.79
15487;BME280;7845;53.698;10.078;2024-03-02T08:50:19;100153.78;;;11.58;73.53
15487;BME280;7845;53.698;10.078;2024-03-02T08:52:45;100125.38;;;11.42;72.99
15487;BME280;7845;53.698;10.078;2024-03-02T08:55:10;100135.63;;;11.45;73.14
15487;BME280;7845;53.698;10.078;2024-03-02T08:57:37;100125.69;;;11.49;72.72
15487;BME280;7845;53.698;10.078;2024-03-02T09:00:02;100133.22;;;11.63;73.46
15487;BME280;7845;53.698;10.078;2024-03-02T09:02:28;100129.75;;;11.63;72.40
15487;BME280;7845;53.698;10.078;2024-03-02T09:04:53;100147.88;;;11.86;72.30
15487;BME280;7845;53.698;10.078;2024-03-02T09:07:19;100155.22;;;11.92;72.36
15487;BME280;7845;53.698;10.078;2024-03-02T09:09:44;100148.06;;;12.04;72.15
15487;BME280;7845;53.698;10.078;2024-03-02T09:12:09;100145.47;;;12.14;72.45
15487;BME280;7845;53.698;10.078;2024-03-02T09:14:36;100156.28;;;12.20;71.32
15487;BME280;7845;53.698;10.078;2024-03-02T09:17:02;100126.91;;;12.05;71.77
15487;BME280;7845;53.698;10.078;2024-03-02T09:19:28;100145.47;;;12.23;71.37
15487;BME280;7845;53.698;10.078;2024-03-02T09:21:54;100160.88;;;12.28;70.29
15487;BME280;7845;53.698;10.078;2024-03-02T09:24:20;100159.34;;;12.25;70.46
15487;BME280;7845;53.698;10.078;2024-03-02T09:26:46;100152.69;;;12.31;70.50
15487;BME280;7845;53.698;10.078;2024-03-02T09:29:11;100156.47;;;12.38;70.59
15487;BME280;7845;53.698;10.078;2024-03-02T09:31:41;100156.34;;;12.39;70.24
15487;BME280;7845;53.698;10.078;2024-03-02T09:34:07;100107.94;;;12.12;70.06
15487;BME280;7845;53.698;10.078;2024-03-02T09:36:32;100165.63;;;12.53;70.00
15487;BME280;7845;53.698;10.078;2024-03-02T09:38:58;100139.44;;;12.42;69.86
15487;BME280;7845;53.698;10.078;2024-03-02T09:41:23;100143.19;;;12.49;69.67
15487;BME280;7845;53.698;10.078;2024-03-02T09:43:49;100162.44;;;12.69;69.15
15487;BME280;7845;53.698;10.078;2024-03-02T09:46:15;100164.28;;;12.68;69.57
15487;BME280;7845;53.698;10.078;2024-03-02T09:48:40;100161.91;;;12.65;68.96
15487;BME280;7845;53.698;10.078;2024-03-02T09:51:06;100167.03;;;12.67;69.22
15487;BME280;7845;53.698;10.078;2024-03-02T09:53:33;100165.41;;;12.75;69.79
15487;BME280;7845;53.698;10.078;2024-03-02T09:55:59;100156.78;;;12.73;68.82
15487;BME280;7845;53.698;10.078;2024-03-02T09:58:25;100159.13;;;12.76;69.61
15487;BME280;7845;53.698;10.078;2024-03-02T10:00:50;100150.28;;;12.68;68.52
15487;BME280;7845;53.698;10.078;2024-03-02T10:03:18;100159.00;;;12.68;68.36
15487;BME280;7845;53.698;10.078;2024-03-02T10:05:44;100149.13;;;12.51;69.20
15487;BME280;7845;53.698;10.078;2024-03-02T10:08:09;100167.59;;;12.70;69.22
15487;BME280;7845;53.698;10.078;2024-03-02T10:10:36;100167.31;;;12.73;68.94
15487;BME280;7845;53.698;10.078;2024-03-02T10:13:12;100163.72;;;12.74;67.97
15487;BME280;7845;53.698;10.078;2024-03-02T10:15:39;100128.94;;;12.61;68.52
15487;BME280;7845;53.698;10.078;2024-03-02T10:18:11;100166.91;;;12.87;69.09
15487;BME280;7845;53.698;10.078;2024-03-02T10:20:38;100132.13;;;12.74;68.22
15487;BME280;7845;53.698;10.078;2024-03-02T10:23:15;100133.78;;;12.75;67.78
15487;BME280;7845;53.698;10.078;2024-03-02T10:25:43;100158.72;;;13.00;67.55
15487;BME280;7845;53.698;10.078;2024-03-02T10:28:09;100164.41;;;13.05;68.11
15487;BME280;7845;53.698;10.078;2024-03-02T10:30:34;100165.94;;;13.07;67.73
15487;BME280;7845;53.698;10.078;2024-03-02T10:33:01;100177.06;;;13.11;67.27
15487;BME280;7845;53.698;10.078;2024-03-02T10:35:27;100168.56;;;13.07;66.70
15487;BME280;7845;53.698;10.078;2024-03-02T10:37:53;100163.34;;;13.17;67.42
15487;BME280;7845;53.698;10.078;2024-03-02T10:40:21;100147.53;;;13.17;66.53
15487;BME280;7845;53.698;10.078;2024-03-02T10:42:46;100128.22;;;12.97;66.75
15487;BME280;7845;53.698;10.078;2024-03-02T10:45:15;100159.03;;;13.16;66.58
15487;BME280;7845;53.698;10.078;2024-03-02T10:47:42;100155.81;;;13.22;67.16
15487;BME280;7845;53.698;10.078;2024-03-02T10:50:08;100155.69;;;13.24;66.42
15487;BME280;7845;53.698;10.078;2024-03-02T10:52:37;100149.97;;;13.28;66.91
15487;BME280;7845;53.698;10.078;2024-03-02T10:55:04;100161.47;;;13.46;66.78
15487;BME280;7845;53.698;10.078;2024-03-02T10:57:41;100157.81;;;13.57;66.58
15487;BME280;7845;53.698;10.078;2024-03-02T11:00:08;100162.34;;;13.74;66.53
15487;BME280;7845;53.698;10.078;2024-03-02T11:02:42;100151.66;;;13.76;65.26
15487;BME280;7845;53.698;10.078;2024-03-02T11:05:16;100176.88;;;13.97;65.61
15487;BME280;7845;53.698;10.078;2024-03-02T11:07:44;100135.75;;;13.95;65.28
15487;BME280;7845;53.698;10.078;2024-03-02T11:10:10;100164.34;;;14.27;65.33
15487;BME280;7845;53.698;10.078;2024-03-02T11:12:39;100169.03;;;14.42;64.61
15487;BME280;7845;53.698;10.078;2024-03-02T11:15:10;100174.47;;;14.59;63.62
15487;BME280;7845;53.698;10.078;2024-03-02T11:17:38;100126.94;;;14.31;63.61
15487;BME280;7845;53.698;10.078;2024-03-02T11:20:06;100159.66;;;14.48;63.28
15487;BME280;7845;53.698;10.078;2024-03-02T11:22:35;100183.88;;;14.61;62.56
15487;BME280;7845;53.698;10.078;2024-03-02T11:25:00;100169.72;;;14.62;62.49
15487;BME280;7845;53.698;10.078;2024-03-02T11:32:59;100183.34;;;14.57;61.96
15487;BME280;7845;53.698;10.078;2024-03-02T11:35:27;100122.25;;;14.25;62.18
15487;BME280;7845;53.698;10.078;2024-03-02T11:37:55;100166.75;;;14.47;61.81
15487;BME280;7845;53.698;10.078;2024-03-02T11:40:27;100178.25;;;14.56;62.46
15487;BME280;7845;53.698;10.078;2024-03-02T11:42:53;100182.91;;;14.62;61.77
15487;BME280;7845;53.698;10.078;2024-03-02T11:45:23;100192.22;;;14.66;62.14
15487;BME280;7845;53.698;10.078;2024-03-02T11:47:58;100189.56;;;14.66;61.92
15487;BME280;7845;53.698;10.078;2024-03-02T11:50:35;100186.31;;;14.72;62.06
15487;BME280;7845;53.698;10.078;2024-03-02T11:53:05;100153.72;;;14.64;62.49
15487;BME280;7845;53.698;10.078;2024-03-02T11:55:34;100174.03;;;14.81;61.86
15487;BME280;7845;53.698;10.078;2024-03-02T11:58:02;100190.72;;;14.81;61.98
15487;BME280;7845;53.698;10.078;2024-03-02T12:00:27;100163.47;;;14.63;61.36
15487;BME280;7845;53.698;10.078;2024-03-02T12:03:06;100164.28;;;14.64;62.07
15487;BME280;7845;53.698;10.078;2024-03-02T12:05:33;100192.31;;;14.74;61.39
15487;BME280;7845;53.698;10.078;2024-03-02T12:08:00;100188.66;;;14.75;61.88
15487;BME280;7845;53.698;10.078;2024-03-02T12:10:26;100192.31;;;14.74;61.59
15487;BME280;7845;53.698;10.078;2024-03-02T12:12:59;100184.75;;;14.79;61.71
15487;BME280;7845;53.698;10.078;2024-03-02T12:15:32;100158.00;;;14.65;61.71
15487;BME280;7845;53.698;10.078;2024-03-02T12:17:59;100180.59;;;14.77;61.42
15487;BME280;7845;53.698;10.078;2024-03-02T12:20:26;100173.72;;;14.84;62.35
15487;BME280;7845;53.698;10.078;2024-03-02T12:22:53;100157.25;;;14.72;61.68
15487;BME280;7845;53.698;10.078;2024-03-02T12:25:20;100186.03;;;14.93;61.38
15487;BME280;7845;53.698;10.078;2024-03-02T12:27:47;100179.00;;;15.01;61.68
15487;BME280;7845;53.698;10.078;2024-03-02T12:30:16;100145.19;;;14.87;61.03
15487;BME280;7845;53.698;10.078;2024-03-02T12:32:41;100160.22;;;14.87;60.97
15487;BME280;7845;53.698;10.078;2024-03-02T12:35:07;100161.94;;;14.96;61.30
15487;BME280;7845;53.698;10.078;2024-03-02T12:37:32;100115.16;;;14.71;61.45
15487;BME280;7845;53.698;10.078;2024-03-02T12:39:58;100164.44;;;14.97;60.73
15487;BME280;7845;53.698;10.078;2024-03-02T12:42:24;100150.03;;;14.92;60.86
15487;BME280;7845;53.698;10.078;2024-03-02T12:44:52;100162.19;;;15.02;61.43
15487;BME280;7845;53.698;10.078;2024-03-02T12:47:20;100161.25;;;15.12;61.25
15487;BME280;7845;53.698;10.078;2024-03-02T12:49:45;100141.03;;;15.02;61.30
15487;BME280;7845;53.698;10.078;2024-03-02T12:52:12;100167.34;;;15.30;61.50
15487;BME280;7845;53.698;10.078;2024-03-02T12:54:38;100169.31;;;15.28;60.76
15487;BME280;7845;53.698;10.078;2024-03-02T12:57:03;100164.53;;;15.31;60.69
15487;BME280;7845;53.698;10.078;2024-03-02T12:59:29;100145.22;;;15.13;60.93